Simpson, Canada
Current Conditions -  °F | °C
As of 3:00 PM on Wednesday 26 Nov 2014 (Local Time) from CYXE Reporting Station
Broken Clouds Broken Clouds  
Wind Chill: -6°   Ceiling: 8000
Heat Index:   Visibility: 15mi
Dew Point:   Wind: 8mph
Humidity: 72%   Direction: 170°S
Pressure: 30.39"   Gusts: NA
Location:  51.45°N, 105.45°W
Report Text: CYXE 262100Z 17007KT 15SM SCT020 BKN080 M14/M18 A3039 RMK SC3AC4 SLP339
Loading
Personal Weather Stations






























Interactive Weather Map New forecast layout! Learn more

10-Day Weather Forecast

Advertisements
Track Severe Weather on mobile